Time;durP1;ratioP1;P1;durP2;ratioP2;P2;SDS_P1;SDS_P2;PMS_P1;PMS_P2;Temp;Humidity;BMP_temperature;BMP_pressure;BME280_temperature;BME280_humidity;BME280_pressure;Samples;Min_cycle;Max_cycle;Signal;HPM_P1;HPM_P2
2020/12/06 00:02:07;;;;;;;0.63;0.10;;;16.10;45.00;;;;;;5070457;28;20039;-49
2020/12/06 00:04:34;;;;;;;0.20;0.10;;;16.10;44.90;;;;;;5084753;28;20083;-46
2020/12/06 00:07:01;;;;;;;0.10;0.10;;;16.10;44.90;;;;;;5083704;28;20114;-46
2020/12/06 00:09:27;;;;;;;2.47;0.40;;;16.10;44.90;;;;;;5079384;28;20049;-48
2020/12/06 00:11:57;;;;;;;0.82;0.10;;;16.10;44.90;;;;;;5058744;28;20040;-47
2020/12/06 00:14:25;;;;;;;0.10;0.10;;;16.10;44.90;;;;;;5070227;28;20041;-48
2020/12/06 00:16:52;;;;;;;0.32;0.10;;;16.10;44.80;;;;;;5071248;28;20159;-46
2020/12/06 00:19:18;;;;;;;1.95;0.10;;;16.10;44.80;;;;;;5073685;28;20113;-46
2020/12/06 00:21:45;;;;;;;1.55;0.10;;;16.10;44.80;;;;;;5073630;28;20123;-49
2020/12/06 00:24:12;;;;;;;1.65;0.10;;;16.10;44.70;;;;;;5073456;28;20538;-47
2020/12/06 00:26:38;;;;;;;0.32;0.10;;;16.10;44.70;;;;;;5072854;28;20040;-47
2020/12/06 00:29:05;;;;;;;0.10;0.10;;;16.10;44.70;;;;;;5069848;28;20102;-46
2020/12/06 00:31:33;;;;;;;0.10;0.03;;;16.10;44.70;;;;;;5073261;28;20068;-47
2020/12/06 00:33:59;;;;;;;1.63;0.38;;;16.10;44.70;;;;;;5073655;28;20040;-47
2020/12/06 00:36:26;;;;;;;0.10;0.10;;;16.10;44.70;;;;;;5073600;28;20098;-48
2020/12/06 00:38:52;;;;;;;0.55;0.10;;;16.10;44.80;;;;;;5073599;28;20109;-45
2020/12/06 00:41:19;;;;;;;0.20;0.00;;;16.10;44.90;;;;;;5070630;28;20044;-46
2020/12/06 00:43:46;;;;;;;0.10;0.10;;;16.10;44.90;;;;;;5085348;28;20040;-46
2020/12/06 00:46:18;;;;;;;0.73;0.10;;;16.10;44.90;;;;;;5077901;28;20139;-46
2020/12/06 00:48:47;;;;;;;1.00;0.10;;;16.10;44.90;;;;;;5066242;28;20098;-46
2020/12/06 00:51:13;;;;;;;0.10;0.10;;;16.10;45.00;;;;;;5069049;28;20036;-46
2020/12/06 00:53:41;;;;;;;0.55;0.10;;;16.10;44.90;;;;;;5073612;28;20131;-46
2020/12/06 00:56:16;;;;;;;0.20;0.20;;;16.00;44.90;;;;;;5055992;28;20116;-46
2020/12/06 00:58:42;;;;;;;0.47;0.47;;;16.00;44.80;;;;;;5088095;28;20457;-51
2020/12/06 01:01:09;;;;;;;0.90;0.10;;;16.00;44.80;;;;;;5077435;28;20087;-49
2020/12/06 01:03:35;;;;;;;0.95;0.10;;;16.00;44.80;;;;;;5076798;28;20033;-45
2020/12/06 01:06:03;;;;;;;0.20;0.10;;;16.10;44.80;;;;;;5076940;28;20068;-49
2020/12/06 01:08:29;;;;;;;0.20;0.10;;;16.10;44.80;;;;;;5074814;28;20091;-46
2020/12/06 01:10:56;;;;;;;0.70;0.10;;;16.00;44.80;;;;;;5074266;28;20447;-46
2020/12/06 01:13:22;;;;;;;0.10;0.10;;;16.00;44.80;;;;;;5076471;28;20151;-47
2020/12/06 01:15:49;;;;;;;0.10;0.08;;;16.00;44.70;;;;;;5076922;28;20132;-47
2020/12/06 01:18:16;;;;;;;0.20;0.10;;;16.00;44.80;;;;;;5076672;28;20052;-45
2020/12/06 01:20:42;;;;;;;0.40;0.10;;;16.00;44.70;;;;;;5073860;28;20064;-46
2020/12/06 01:23:10;;;;;;;0.60;0.10;;;16.00;44.70;;;;;;5088758;28;20040;-53
2020/12/06 01:25:36;;;;;;;0.10;0.10;;;16.00;44.70;;;;;;5076498;28;20040;-50
2020/12/06 01:28:03;;;;;;;0.30;0.20;;;16.00;44.80;;;;;;5061407;28;20053;-50
2020/12/06 01:30:29;;;;;;;0.40;0.10;;;16.00;44.80;;;;;;5076644;28;20060;-46
2020/12/06 01:32:56;;;;;;;0.20;0.10;;;16.00;44.80;;;;;;5058430;28;20102;-49
2020/12/06 01:35:22;;;;;;;0.30;0.20;;;16.00;44.80;;;;;;5071859;28;20035;-46
2020/12/06 01:37:49;;;;;;;0.30;0.30;;;16.00;44.80;;;;;;5087621;28;20582;-48
2020/12/06 01:40:16;;;;;;;0.70;0.10;;;15.90;44.90;;;;;;5071605;28;20060;-47
2020/12/06 01:42:43;;;;;;;0.57;0.10;;;16.00;44.90;;;;;;5076088;28;20599;-46
2020/12/06 01:45:09;;;;;;;0.93;0.93;;;16.00;44.90;;;;;;5076429;28;20454;-47
2020/12/06 01:47:36;;;;;;;0.20;0.10;;;15.90;44.80;;;;;;5073816;28;20086;-46
2020/12/06 01:50:03;;;;;;;0.47;0.10;;;16.00;44.90;;;;;;5088336;28;20123;-47
2020/12/06 01:52:30;;;;;;;0.40;0.10;;;16.00;45.00;;;;;;5075781;28;20504;-47
2020/12/06 01:54:58;;;;;;;0.38;0.25;;;15.90;44.90;;;;;;5076136;28;20133;-50
2020/12/06 01:57:25;;;;;;;1.30;0.22;;;16.00;45.00;;;;;;5075844;28;20068;-46
2020/12/06 01:59:52;;;;;;;0.40;0.10;;;16.00;44.90;;;;;;5073698;28;20052;-48
2020/12/06 02:02:19;;;;;;;0.20;0.20;;;16.00;44.90;;;;;;5069842;28;20052;-46
2020/12/06 02:04:46;;;;;;;1.23;0.30;;;16.00;44.80;;;;;;5074299;28;20488;-46
2020/12/06 02:07:13;;;;;;;0.60;0.20;;;15.90;44.80;;;;;;5076170;28;20438;-45
2020/12/06 02:09:39;;;;;;;1.95;0.85;;;16.00;44.80;;;;;;5076061;28;20404;-48
2020/12/06 02:12:08;;;;;;;2.28;0.10;;;16.00;44.80;;;;;;5083256;28;20097;-46
2020/12/06 02:14:36;;;;;;;0.90;0.10;;;16.00;44.80;;;;;;5056437;28;20132;-49
2020/12/06 02:17:03;;;;;;;0.73;0.10;;;16.00;44.80;;;;;;5087248;28;20695;-47
2020/12/06 02:19:30;;;;;;;0.43;0.10;;;16.00;44.80;;;;;;5086520;28;20430;-45
2020/12/06 02:21:57;;;;;;;0.40;0.20;;;15.90;44.70;;;;;;5076855;28;20508;-47
2020/12/06 02:24:24;;;;;;;0.88;0.25;;;16.00;44.80;;;;;;5077455;28;20071;-47
2020/12/06 02:26:51;;;;;;;0.25;0.10;;;15.90;44.70;;;;;;5082525;28;20539;-47
2020/12/06 02:29:19;;;;;;;0.93;0.20;;;16.00;44.80;;;;;;5071247;28;20768;-49
2020/12/06 02:31:46;;;;;;;0.98;0.20;;;16.00;44.80;;;;;;5086684;28;20052;-46
2020/12/06 02:34:13;;;;;;;1.17;0.20;;;15.90;44.70;;;;;;5075681;28;20451;-45
2020/12/06 02:36:40;;;;;;;0.65;0.25;;;15.90;44.70;;;;;;5079490;28;20046;-46
2020/12/06 02:39:09;;;;;;;0.73;0.20;;;15.90;44.60;;;;;;5083107;28;20160;-45
2020/12/06 02:41:37;;;;;;;0.85;0.40;;;15.90;44.60;;;;;;5086961;28;20427;-49
2020/12/06 02:44:04;;;;;;;0.17;0.10;;;15.90;44.60;;;;;;5071608;28;20052;-45
2020/12/06 02:46:31;;;;;;;0.60;0.10;;;15.90;44.60;;;;;;5074723;28;20137;-45
2020/12/06 02:48:58;;;;;;;2.05;0.30;;;15.90;44.50;;;;;;5074900;28;20049;-45
2020/12/06 02:51:25;;;;;;;1.08;0.10;;;15.90;44.50;;;;;;5074890;28;20098;-46
2020/12/06 02:53:52;;;;;;;1.67;0.30;;;15.90;44.50;;;;;;5059595;28;20141;-45
2020/12/06 02:56:20;;;;;;;0.40;0.10;;;15.90;44.50;;;;;;5070832;28;20056;-45
2020/12/06 02:58:46;;;;;;;0.52;0.10;;;15.90;44.50;;;;;;5072923;28;20056;-45
2020/12/06 03:01:13;;;;;;;0.10;0.10;;;15.90;44.50;;;;;;5069485;28;20040;-47
2020/12/06 03:03:40;;;;;;;0.30;0.20;;;15.90;44.40;;;;;;5074439;28;20127;-48
2020/12/06 03:06:07;;;;;;;0.57;0.10;;;15.90;44.40;;;;;;5057565;28;20052;-45
2020/12/06 03:08:33;;;;;;;0.30;0.20;;;15.90;44.40;;;;;;5085553;28;20046;-47
2020/12/06 03:11:00;;;;;;;0.40;0.10;;;15.90;44.40;;;;;;5071598;28;20040;-46
2020/12/06 03:13:27;;;;;;;0.50;0.25;;;15.90;44.40;;;;;;5074122;28;20044;-45
2020/12/06 03:15:54;;;;;;;1.08;0.28;;;15.90;44.40;;;;;;5080686;28;20388;-50
2020/12/06 03:18:21;;;;;;;0.22;0.10;;;15.90;44.40;;;;;;5082508;28;20503;-46
2020/12/06 03:20:47;;;;;;;1.08;0.13;;;15.90;44.40;;;;;;5085574;28;20040;-52
2020/12/06 03:23:14;;;;;;;0.65;0.45;;;15.90;44.30;;;;;;5069675;28;20093;-47
2020/12/06 03:25:40;;;;;;;0.35;0.10;;;15.90;44.30;;;;;;5069613;28;20044;-45
2020/12/06 03:28:07;;;;;;;0.30;0.20;;;15.90;44.30;;;;;;5056090;28;20104;-45
2020/12/06 03:30:34;;;;;;;1.23;0.20;;;15.90;44.30;;;;;;5073706;28;20055;-44
2020/12/06 03:33:01;;;;;;;0.70;0.40;;;15.90;44.30;;;;;;5074054;28;20042;-46
2020/12/06 03:35:27;;;;;;;1.45;0.50;;;15.90;44.30;;;;;;5071614;28;20057;-51
2020/12/06 03:37:54;;;;;;;0.52;0.20;;;15.90;44.30;;;;;;5084222;28;20118;-46
2020/12/06 03:40:21;;;;;;;1.55;0.10;;;15.80;44.50;;;;;;5073949;28;20045;-45
2020/12/06 03:42:50;;;;;;;0.40;0.13;;;15.80;44.30;;;;;;5073980;28;20094;-45
2020/12/06 03:45:17;;;;;;;0.35;0.20;;;15.80;44.30;;;;;;5073833;28;20502;-44
2020/12/06 03:47:44;;;;;;;0.63;0.10;;;15.80;44.30;;;;;;5073485;28;20115;-46
2020/12/06 03:50:11;;;;;;;0.20;0.20;;;15.80;44.30;;;;;;5069449;28;20093;-47
2020/12/06 03:52:37;;;;;;;2.05;0.10;;;15.80;44.30;;;;;;5073340;28;20120;-45
2020/12/06 03:55:04;;;;;;;0.20;0.20;;;15.80;44.30;;;;;;5081442;28;20888;-46
2020/12/06 03:57:31;;;;;;;0.43;0.10;;;15.80;44.30;;;;;;5081732;28;20063;-47
2020/12/06 03:59:58;;;;;;;0.30;0.20;;;15.80;44.30;;;;;;5068504;28;20056;-46
2020/12/06 04:02:25;;;;;;;0.55;0.20;;;15.80;44.30;;;;;;5070724;28;20724;-45
2020/12/06 04:04:52;;;;;;;0.40;0.10;;;15.80;44.30;;;;;;5071190;28;20048;-45
2020/12/06 04:07:19;;;;;;;0.65;0.10;;;15.80;44.30;;;;;;5075983;28;20036;-47
2020/12/06 04:09:45;;;;;;;2.97;0.20;;;15.80;44.30;;;;;;5076553;28;20355;-46
2020/12/06 04:12:12;;;;;;;0.22;0.20;;;15.80;44.30;;;;;;5073407;28;20851;-46
2020/12/06 04:14:39;;;;;;;0.50;0.10;;;15.80;44.30;;;;;;5072417;28;20761;-48
2020/12/06 04:17:05;;;;;;;1.33;0.10;;;15.80;44.90;;;;;;5070022;28;20123;-48
2020/12/06 04:19:32;;;;;;;0.10;0.10;;;15.80;44.40;;;;;;5075000;28;20098;-48
2020/12/06 04:21:59;;;;;;;0.85;0.20;;;15.80;44.50;;;;;;5083917;28;20044;-46
2020/12/06 04:24:26;;;;;;;1.13;0.35;;;15.80;44.40;;;;;;5084320;28;20052;-45
2020/12/06 04:26:52;;;;;;;0.85;0.10;;;15.80;44.40;;;;;;5077665;28;20131;-47
2020/12/06 04:29:19;;;;;;;0.65;0.25;;;15.80;44.40;;;;;;5073396;28;20047;-45
2020/12/06 04:31:45;;;;;;;0.80;0.10;;;15.80;44.40;;;;;;5076067;28;20059;-46
2020/12/06 04:34:12;;;;;;;0.20;0.20;;;15.80;44.40;;;;;;5086398;28;20117;-49
2020/12/06 04:36:39;;;;;;;0.55;0.20;;;15.80;44.40;;;;;;5065956;28;20063;-47
2020/12/06 04:39:06;;;;;;;0.10;0.10;;;15.80;44.50;;;;;;5086097;28;20051;-45
2020/12/06 04:41:33;;;;;;;0.40;0.20;;;15.80;44.40;;;;;;5075165;28;20120;-44
2020/12/06 04:44:00;;;;;;;0.50;0.10;;;15.80;45.00;;;;;;5074549;28;20087;-45
2020/12/06 04:46:27;;;;;;;1.67;0.15;;;15.80;44.50;;;;;;5076956;28;20137;-46
2020/12/06 04:49:09;;;;;;;0.73;0.10;;;15.80;44.50;;;;;;5076961;28;20051;-46
2020/12/06 04:51:41;;;;;;;2.85;0.45;;;15.80;44.50;;;;;;5076918;28;20051;-46
2020/12/06 04:54:09;;;;;;;0.65;0.20;;;15.70;44.40;;;;;;5076789;28;20101;-47
2020/12/06 04:56:38;;;;;;;0.70;0.25;;;15.80;44.50;;;;;;5074953;28;20385;-44
2020/12/06 04:59:05;;;;;;;0.82;0.28;;;15.80;44.50;;;;;;5073441;28;20191;-45
2020/12/06 05:01:34;;;;;;;0.68;0.10;;;15.80;44.60;;;;;;5076506;28;20052;-44
2020/12/06 05:04:09;;;;;;;0.43;0.20;;;15.80;44.50;;;;;;5076444;28;20072;-44
2020/12/06 05:06:39;;;;;;;0.73;0.10;;;15.80;44.50;;;;;;5080079;28;20131;-46
2020/12/06 05:09:09;;;;;;;1.10;0.10;;;15.80;44.50;;;;;;5085648;28;20048;-45
2020/12/06 05:11:36;;;;;;;0.30;0.10;;;15.80;44.60;;;;;;5075068;28;20098;-45
2020/12/06 05:14:05;;;;;;;0.20;0.20;;;15.80;44.50;;;;;;5072918;28;20090;-45
2020/12/06 05:16:34;;;;;;;0.43;0.10;;;15.80;44.60;;;;;;5087623;28;20048;-46
2020/12/06 05:19:01;;;;;;;0.95;0.45;;;15.80;44.50;;;;;;5077459;28;20522;-45
2020/12/06 05:21:35;;;;;;;0.60;0.10;;;15.80;44.60;;;;;;5076120;28;20090;-46
2020/12/06 05:24:02;;;;;;;0.32;0.10;;;15.80;44.50;;;;;;5075899;28;20142;-45
2020/12/06 05:26:30;;;;;;;0.50;0.20;;;15.80;44.50;;;;;;5073297;28;20127;-49
2020/12/06 05:28:58;;;;;;;0.32;0.10;;;15.80;44.50;;;;;;5073825;28;20148;-46
2020/12/06 05:31:25;;;;;;;2.00;0.30;;;15.80;44.50;;;;;;5075310;28;20147;-45
2020/12/06 05:33:53;;;;;;;0.20;0.10;;;15.80;44.50;;;;;;5075861;28;20044;-47
2020/12/06 05:36:20;;;;;;;0.35;0.20;;;15.80;44.60;;;;;;5076030;28;20072;-47
2020/12/06 05:38:47;;;;;;;0.20;0.15;;;15.80;44.50;;;;;;5075653;28;20573;-46
2020/12/06 05:41:13;;;;;;;1.98;0.20;;;15.80;44.60;;;;;;5055213;28;20047;-44
2020/12/06 05:43:41;;;;;;;0.40;0.20;;;15.80;44.50;;;;;;5087088;28;20075;-45
2020/12/06 05:46:09;;;;;;;0.68;0.32;;;15.80;44.50;;;;;;5084476;28;20123;-45
2020/12/06 05:48:39;;;;;;;0.85;0.45;;;15.80;44.50;;;;;;5080266;28;20036;-45
2020/12/06 05:51:07;;;;;;;0.73;0.20;;;15.80;44.50;;;;;;5076144;28;20048;-47
2020/12/06 05:53:34;;;;;;;1.33;0.77;;;15.80;44.60;;;;;;5072643;28;20141;-47
2020/12/06 05:56:07;;;;;;;1.65;0.47;;;15.80;44.60;;;;;;5087688;28;20068;-46
2020/12/06 05:58:35;;;;;;;1.02;0.20;;;15.80;44.60;;;;;;5078792;28;20395;-45
2020/12/06 06:01:03;;;;;;;1.33;0.20;;;15.80;44.60;;;;;;5085279;28;20040;-45
2020/12/06 06:03:34;;;;;;;1.52;0.20;;;15.80;44.60;;;;;;5081093;28;20050;-47
2020/12/06 06:06:03;;;;;;;1.42;0.20;;;15.80;44.50;;;;;;5075598;28;20054;-44
2020/12/06 06:08:32;;;;;;;1.00;0.50;;;15.80;44.50;;;;;;5073064;28;20040;-47
2020/12/06 06:11:20;;;;;;;0.40;0.30;;;15.80;44.50;;;;;;5087618;28;20461;-48
2020/12/06 06:13:55;;;;;;;1.55;0.40;;;15.80;44.40;;;;;;5087023;28;20052;-48
2020/12/06 06:16:24;;;;;;;2.15;0.50;;;15.80;44.50;;;;;;5085685;28;20044;-46
2020/12/06 06:18:52;;;;;;;0.65;0.30;;;15.80;44.50;;;;;;5078352;28;20060;-48
2020/12/06 06:21:21;;;;;;;0.60;0.25;;;15.80;44.50;;;;;;5075482;28;20032;-46
2020/12/06 06:23:49;;;;;;;0.55;0.20;;;15.80;44.50;;;;;;5075747;28;20060;-46
2020/12/06 06:26:19;;;;;;;1.10;0.20;;;15.80;44.50;;;;;;5069872;28;20563;-46
2020/12/06 06:28:46;;;;;;;0.20;0.15;;;15.80;44.50;;;;;;5086868;28;20132;-48
2020/12/06 06:31:15;;;;;;;2.55;0.50;;;15.80;44.40;;;;;;5069764;28;20468;-48
2020/12/06 06:33:43;;;;;;;0.30;0.20;;;15.80;44.40;;;;;;5069412;28;20095;-47
2020/12/06 06:36:11;;;;;;;0.38;0.30;;;15.80;44.40;;;;;;5056576;28;20414;-45
2020/12/06 06:38:39;;;;;;;1.63;0.57;;;15.80;44.40;;;;;;5073352;28;20075;-46
2020/12/06 06:41:07;;;;;;;0.95;0.40;;;15.80;44.40;;;;;;5071301;28;20044;-48
2020/12/06 06:43:34;;;;;;;0.35;0.25;;;15.80;44.40;;;;;;5074247;28;20048;-46
2020/12/06 06:46:09;;;;;;;0.68;0.20;;;15.80;44.40;;;;;;5074548;28;20553;-45
2020/12/06 06:48:36;;;;;;;0.55;0.30;;;15.80;44.40;;;;;;5074658;28;20530;-45
2020/12/06 06:51:04;;;;;;;0.88;0.20;;;15.80;44.40;;;;;;5074730;28;20109;-47
2020/12/06 06:53:31;;;;;;;0.43;0.30;;;15.80;44.40;;;;;;5071898;28;20048;-45
2020/12/06 06:56:00;;;;;;;0.85;0.50;;;15.80;44.40;;;;;;5072089;28;20075;-45
2020/12/06 06:58:30;;;;;;;0.85;0.30;;;15.80;44.40;;;;;;5074006;28;20056;-45
2020/12/06 07:01:18;;;;;;;1.42;0.30;;;15.80;44.40;;;;;;5074149;28;20040;-48
2020/12/06 07:03:47;;;;;;;0.95;0.30;;;15.80;44.30;;;;;;5069770;28;20045;-45
2020/12/06 07:06:46;;;;;;;0.73;0.73;;;15.80;44.30;;;;;;5074416;28;20040;-45
2020/12/06 07:09:14;;;;;;;0.30;0.20;;;15.80;44.30;;;;;;5074199;28;20515;-45
2020/12/06 07:11:42;;;;;;;0.63;0.20;;;15.80;44.40;;;;;;5071345;28;20415;-46
2020/12/06 07:14:09;;;;;;;0.30;0.22;;;15.80;44.40;;;;;;5085988;28;20036;-46
2020/12/06 07:16:36;;;;;;;1.02;0.20;;;15.80;44.40;;;;;;5077650;28;20114;-45
2020/12/06 07:19:03;;;;;;;0.80;0.30;;;15.80;44.40;;;;;;5075250;28;20058;-49
2020/12/06 07:21:34;;;;;;;0.95;0.30;;;15.80;44.40;;;;;;5058821;28;20032;-49
2020/12/06 07:24:02;;;;;;;0.60;0.10;;;15.80;44.40;;;;;;5074097;28;20134;-46
2020/12/06 07:26:29;;;;;;;1.95;0.10;;;15.80;44.40;;;;;;5071140;28;20043;-47
2020/12/06 07:28:57;;;;;;;0.17;0.10;;;15.80;44.70;;;;;;5071619;28;20060;-45
2020/12/06 07:31:24;;;;;;;1.30;0.20;;;15.80;44.50;;;;;;5073868;28;20044;-45
2020/12/06 07:33:50;;;;;;;1.20;0.25;;;15.80;44.50;;;;;;5073912;28;20048;-45
2020/12/06 07:36:17;;;;;;;0.45;0.32;;;15.80;44.50;;;;;;5074876;28;20124;-50
2020/12/06 07:38:44;;;;;;;0.85;0.32;;;15.80;44.50;;;;;;5085165;28;20477;-45
2020/12/06 07:41:12;;;;;;;0.25;0.10;;;15.80;44.50;;;;;;5069994;28;20121;-47
2020/12/06 07:43:39;;;;;;;1.15;0.20;;;15.80;44.50;;;;;;5085702;28;20124;-46
2020/12/06 07:46:13;;;;;;;2.20;0.38;;;15.80;44.60;;;;;;5074527;28;20123;-45
2020/12/06 07:48:41;;;;;;;0.93;0.30;;;15.80;44.60;;;;;;5073601;28;20071;-45
2020/12/06 07:51:07;;;;;;;2.05;0.30;;;15.80;44.60;;;;;;5058709;28;20063;-45
2020/12/06 07:54:00;;;;;;;0.60;0.35;;;15.80;44.70;;;;;;5071207;28;20097;-45
2020/12/06 07:56:29;;;;;;;0.30;0.20;;;15.80;44.70;;;;;;5068894;28;20041;-48
2020/12/06 07:59:18;;;;;;;0.38;0.20;;;15.80;44.80;;;;;;5071154;28;20056;-46
2020/12/06 08:01:47;;;;;;;0.93;0.20;;;15.80;44.80;;;;;;5084870;28;20658;-47
2020/12/06 08:04:18;;;;;;;1.23;0.40;;;15.80;44.90;;;;;;5068504;28;20754;-45
2020/12/06 08:06:49;;;;;;;0.35;0.28;;;15.80;44.90;;;;;;5067702;28;20127;-47
2020/12/06 08:09:18;;;;;;;2.95;0.30;;;15.80;44.90;;;;;;5073239;28;20040;-47
2020/12/06 08:11:49;;;;;;;2.50;0.40;;;15.80;44.90;;;;;;5072930;28;20489;-49
2020/12/06 08:14:19;;;;;;;4.63;0.30;;;15.80;44.90;;;;;;5067723;28;20052;-48
2020/12/06 08:16:59;;;;;;;5.32;0.30;;;15.80;44.90;;;;;;5068889;28;20073;-45
2020/12/06 08:19:26;;;;;;;0.30;0.20;;;15.90;45.00;;;;;;5059601;28;20052;-49
2020/12/06 08:21:58;;;;;;;2.08;0.30;;;15.90;45.00;;;;;;5072906;28;20044;-45
2020/12/06 08:24:26;;;;;;;1.35;0.47;;;15.90;45.00;;;;;;5073501;28;20048;-46
2020/12/06 08:26:53;;;;;;;0.80;0.40;;;15.80;45.00;;;;;;5073075;28;20044;-48
2020/12/06 08:29:20;;;;;;;2.25;0.20;;;15.90;45.00;;;;;;5070270;28;20533;-46
2020/12/06 08:31:48;;;;;;;0.40;0.20;;;15.90;45.10;;;;;;5085062;28;20067;-48
2020/12/06 08:34:16;;;;;;;2.78;0.43;;;15.90;45.10;;;;;;5070732;28;20048;-47
2020/12/06 08:36:44;;;;;;;1.33;0.43;;;15.90;45.00;;;;;;5073210;28;20561;-45
2020/12/06 08:39:18;;;;;;;3.20;0.35;;;15.90;45.00;;;;;;5069479;28;20036;-45
2020/12/06 08:41:45;;;;;;;5.85;0.28;;;15.90;45.00;;;;;;5070302;28;20125;-45
2020/12/06 08:44:14;;;;;;;0.88;0.20;;;15.90;45.10;;;;;;5085018;28;20106;-47
2020/12/06 08:46:49;;;;;;;0.63;0.20;;;15.90;45.00;;;;;;5073040;28;20054;-45
2020/12/06 08:49:18;;;;;;;16.27;5.20;;;16.00;45.10;;;;;;5073830;28;20123;-46
2020/12/06 08:51:49;;;;;;;0.75;0.40;;;15.90;45.00;;;;;;5073008;28;20321;-46
2020/12/06 08:54:30;;;;;;;2.33;0.68;;;16.00;45.10;;;;;;5073014;28;20048;-45
2020/12/06 08:57:07;;;;;;;3.22;0.38;;;16.00;45.10;;;;;;5072907;28;20596;-46
2020/12/06 08:59:37;;;;;;;2.40;0.30;;;15.90;45.00;;;;;;5069890;28;20132;-46
2020/12/06 09:02:04;;;;;;;4.05;1.92;;;16.00;45.10;;;;;;5084808;28;20048;-46
2020/12/06 09:04:33;;;;;;;4.32;2.08;;;16.00;45.10;;;;;;5072964;28;20135;-46
2020/12/06 09:06:59;;;;;;;8.40;2.42;;;16.00;45.10;;;;;;5076602;28;20084;-46
2020/12/06 09:09:26;;;;;;;7.50;2.90;;;15.90;45.00;;;;;;5078327;28;20044;-44
2020/12/06 09:11:53;;;;;;;3.42;2.38;;;16.00;45.00;;;;;;5087481;28;20056;-47
2020/12/06 09:14:19;;;;;;;3.72;1.80;;;16.00;45.00;;;;;;5072251;28;20044;-47
2020/12/06 09:16:47;;;;;;;2.20;1.73;;;16.00;45.00;;;;;;5082678;28;20059;-47
2020/12/06 09:19:14;;;;;;;1.85;1.75;;;16.00;45.00;;;;;;5080440;28;20044;-47
2020/12/06 09:21:41;;;;;;;1.90;1.40;;;16.00;45.10;;;;;;5086253;28;20040;-47
2020/12/06 09:24:07;;;;;;;5.22;1.13;;;16.00;45.20;;;;;;5078637;28;20479;-48
2020/12/06 09:26:34;;;;;;;4.93;1.02;;;16.00;45.30;;;;;;5072268;28;20407;-48
2020/12/06 09:29:01;;;;;;;5.90;2.17;;;16.00;45.40;;;;;;5070050;28;20041;-48
2020/12/06 09:31:27;;;;;;;6.25;2.65;;;16.00;45.60;;;;;;5074208;28;20060;-47
2020/12/06 09:33:55;;;;;;;5.22;2.05;;;16.10;45.70;;;;;;5072169;28;20039;-47
2020/12/06 09:36:22;;;;;;;7.20;2.00;;;16.00;45.60;;;;;;5083762;28;20043;-49
2020/12/06 09:38:48;;;;;;;6.80;1.92;;;16.10;45.70;;;;;;5075871;28;20393;-47
2020/12/06 09:41:15;;;;;;;3.35;1.70;;;16.10;45.70;;;;;;5074858;28;20044;-51
2020/12/06 09:43:44;;;;;;;3.20;1.60;;;16.10;45.70;;;;;;5077040;28;20060;-50
2020/12/06 09:46:11;;;;;;;3.80;1.67;;;16.10;45.70;;;;;;5083276;28;20628;-47
2020/12/06 09:48:38;;;;;;;3.28;1.23;;;16.10;45.60;;;;;;5077907;28;20047;-47
2020/12/06 09:51:07;;;;;;;4.68;1.02;;;16.10;45.60;;;;;;5083267;28;20071;-49
2020/12/06 09:53:34;;;;;;;2.50;1.33;;;16.10;45.60;;;;;;5084658;28;20499;-47
2020/12/06 09:56:01;;;;;;;3.85;1.38;;;16.20;45.50;;;;;;5085438;28;20079;-47
2020/12/06 09:58:27;;;;;;;2.60;1.42;;;16.20;45.50;;;;;;5084911;28;20076;-47
2020/12/06 10:00:57;;;;;;;4.10;1.30;;;16.20;45.40;;;;;;5083371;28;20044;-51
2020/12/06 10:03:24;;;;;;;0.93;0.73;;;16.10;45.30;;;;;;5083001;28;20566;-50
2020/12/06 10:05:50;;;;;;;1.45;0.90;;;16.10;45.20;;;;;;5085476;28;20047;-46
2020/12/06 10:08:18;;;;;;;2.03;0.90;;;16.20;45.20;;;;;;5084449;28;20036;-49
2020/12/06 10:10:45;;;;;;;1.95;1.08;;;16.10;45.10;;;;;;5086001;28;20121;-50
2020/12/06 10:13:11;;;;;;;2.58;1.13;;;16.20;45.20;;;;;;5082601;28;20423;-48
2020/12/06 10:15:39;;;;;;;2.33;0.95;;;16.20;45.20;;;;;;5082524;28;20542;-47
2020/12/06 10:18:06;;;;;;;7.45;0.70;;;16.20;45.10;;;;;;5082494;28;20052;-48
2020/12/06 10:20:33;;;;;;;1.88;1.20;;;16.20;45.00;;;;;;5085261;28;20047;-47
2020/12/06 10:22:59;;;;;;;0.88;0.85;;;16.20;45.00;;;;;;5085635;28;20060;-50
2020/12/06 10:25:27;;;;;;;3.45;0.80;;;16.20;45.00;;;;;;5081545;28;20048;-52
2020/12/06 10:27:53;;;;;;;1.02;0.80;;;16.20;45.00;;;;;;5080095;28;20056;-49
2020/12/06 10:30:20;;;;;;;1.63;0.68;;;16.20;45.30;;;;;;5082466;28;20048;-51
2020/12/06 10:32:47;;;;;;;0.47;0.40;;;16.20;44.90;;;;;;5082937;28;20056;-48
2020/12/06 10:35:14;;;;;;;2.88;0.95;;;16.20;44.90;;;;;;5085611;28;20050;-48
2020/12/06 10:37:40;;;;;;;2.72;0.85;;;16.20;44.90;;;;;;5078830;28;20048;-49
2020/12/06 10:40:07;;;;;;;0.77;0.73;;;16.20;44.90;;;;;;5081697;28;20042;-47
2020/12/06 10:42:34;;;;;;;0.57;0.32;;;16.20;44.90;;;;;;5082776;28;20043;-51
2020/12/06 10:45:01;;;;;;;5.32;0.80;;;16.20;44.90;;;;;;5068433;28;20040;-50
2020/12/06 10:47:28;;;;;;;4.13;0.68;;;16.30;45.00;;;;;;5081264;28;20043;-49
2020/12/06 10:49:54;;;;;;;1.08;0.73;;;16.30;44.90;;;;;;5084974;28;20609;-49
2020/12/06 10:52:21;;;;;;;7.45;1.48;;;16.30;44.90;;;;;;5083207;28;20045;-49
2020/12/06 10:54:51;;;;;;;4.05;0.90;;;16.30;44.90;;;;;;5075261;28;20160;-48
2020/12/06 10:57:18;;;;;;;1.90;1.00;;;16.40;44.90;;;;;;5073673;28;20511;-49
2020/12/06 10:59:46;;;;;;;1.35;0.68;;;16.40;44.80;;;;;;5082724;28;20066;-47
2020/12/06 11:02:13;;;;;;;1.55;0.52;;;16.40;44.80;;;;;;5085965;28;20478;-49
2020/12/06 11:04:40;;;;;;;1.77;0.65;;;16.40;44.80;;;;;;5083388;28;20123;-47
2020/12/06 11:07:06;;;;;;;1.08;0.73;;;16.40;44.70;;;;;;5082086;28;20040;-48
2020/12/06 11:09:33;;;;;;;3.17;0.93;;;16.40;44.60;;;;;;5081891;28;20040;-48
2020/12/06 11:11:59;;;;;;;3.42;0.90;;;16.40;44.60;;;;;;5068900;28;20047;-51
2020/12/06 11:14:27;;;;;;;3.50;0.88;;;16.40;44.60;;;;;;5081190;28;20079;-49
2020/12/06 11:16:54;;;;;;;3.67;1.10;;;16.50;44.70;;;;;;5084880;28;20191;-50
2020/12/06 11:19:21;;;;;;;5.65;0.98;;;16.50;44.70;;;;;;5083143;28;20115;-51
2020/12/06 11:21:51;;;;;;;5.03;0.93;;;16.50;45.10;;;;;;5083343;28;20147;-48
2020/12/06 11:24:18;;;;;;;8.25;1.55;;;16.50;45.70;;;;;;5073351;28;20049;-47
2020/12/06 11:26:44;;;;;;;1.55;0.82;;;16.50;45.60;;;;;;5082082;28;20117;-50
2020/12/06 11:29:11;;;;;;;6.82;1.10;;;16.60;45.30;;;;;;5064605;28;20052;-49
2020/12/06 11:31:38;;;;;;;3.78;0.93;;;16.70;45.00;;;;;;5082515;28;20550;-48
2020/12/06 11:34:06;;;;;;;2.78;1.10;;;16.70;44.80;;;;;;5079862;28;20044;-48
2020/12/06 11:36:33;;;;;;;3.60;0.93;;;16.70;44.60;;;;;;5083431;28;20044;-49
2020/12/06 11:38:59;;;;;;;4.18;0.98;;;16.70;44.40;;;;;;5074568;28;20091;-49
2020/12/06 11:41:26;;;;;;;8.48;1.02;;;16.80;44.30;;;;;;5084883;28;20045;-49
2020/12/06 11:43:52;;;;;;;1.65;1.02;;;16.70;44.10;;;;;;5082219;28;20052;-56
2020/12/06 11:46:19;;;;;;;4.78;1.50;;;16.80;44.10;;;;;;5078989;28;20402;-48
2020/12/06 11:48:46;;;;;;;1.73;0.90;;;16.80;44.20;;;;;;5077505;28;20571;-47
2020/12/06 11:51:13;;;;;;;6.38;1.70;;;16.80;44.20;;;;;;5080882;28;20042;-51
2020/12/06 11:53:41;;;;;;;1.35;0.82;;;16.90;44.20;;;;;;5082824;28;20055;-47
2020/12/06 11:56:08;;;;;;;2.13;1.23;;;16.90;44.10;;;;;;5084795;28;20105;-48
2020/12/06 11:58:35;;;;;;;2.15;0.82;;;16.90;44.00;;;;;;5066070;28;20044;-46
2020/12/06 12:01:01;;;;;;;1.80;0.98;;;16.90;43.90;;;;;;5080358;28;20048;-50
2020/12/06 12:03:28;;;;;;;1.58;0.98;;;16.90;43.90;;;;;;5081203;28;20052;-45
2020/12/06 12:05:55;;;;;;;1.20;1.10;;;16.90;43.90;;;;;;5080967;28;20127;-50
2020/12/06 12:08:22;;;;;;;2.20;1.00;;;16.90;43.80;;;;;;5085093;28;20060;-51
2020/12/06 12:10:49;;;;;;;4.95;1.38;;;16.90;43.80;;;;;;5084819;28;20140;-49
2020/12/06 12:13:15;;;;;;;1.92;1.33;;;16.90;43.80;;;;;;5073271;28;20040;-49
2020/12/06 12:15:42;;;;;;;2.85;1.45;;;17.00;43.80;;;;;;5080489;28;20072;-50
2020/12/06 12:18:09;;;;;;;3.92;1.52;;;17.00;43.80;;;;;;5080770;28;20044;-46
2020/12/06 12:20:36;;;;;;;3.60;1.77;;;16.90;43.70;;;;;;5080943;28;20496;-48
2020/12/06 12:23:02;;;;;;;7.30;1.40;;;16.90;43.70;;;;;;5080645;28;20129;-48
2020/12/06 12:25:30;;;;;;;5.43;2.17;;;17.00;43.80;;;;;;5083245;28;20123;-49
2020/12/06 12:27:56;;;;;;;7.70;1.85;;;16.90;43.70;;;;;;5083895;28;20048;-47
2020/12/06 12:30:23;;;;;;;5.55;1.50;;;17.00;43.80;;;;;;5078975;28;20079;-48
2020/12/06 12:32:49;;;;;;;6.75;1.67;;;16.90;43.80;;;;;;5080161;28;20065;-47
2020/12/06 12:35:16;;;;;;;4.32;2.22;;;16.90;43.90;;;;;;5084731;28;20052;-51
2020/12/06 12:37:42;;;;;;;5.50;1.92;;;17.00;43.90;;;;;;5083911;28;20101;-51
2020/12/06 12:40:09;;;;;;;9.40;2.08;;;17.00;43.90;;;;;;5082970;28;20575;-46
2020/12/06 12:42:36;;;;;;;7.35;2.83;;;16.90;43.80;;;;;;5080868;28;20568;-46
2020/12/06 12:45:03;;;;;;;5.13;2.25;;;17.00;43.90;;;;;;5077969;28;20419;-46
2020/12/06 12:47:30;;;;;;;4.78;2.38;;;17.00;43.90;;;;;;5087135;28;20048;-46
2020/12/06 12:49:56;;;;;;;4.82;2.03;;;17.00;43.90;;;;;;5086997;28;20423;-48
2020/12/06 12:52:23;;;;;;;6.07;1.92;;;17.00;44.00;;;;;;5078215;28;20044;-47